Time;durP1;ratioP1;P1;durP2;ratioP2;P2;SDS_P1;SDS_P2;PMS_P1;PMS_P2;Temp;Humidity;BMP_temperature;BMP_pressure;BME280_temperature;BME280_humidity;BME280_pressure;Samples;Min_cycle;Max_cycle;Signal;HPM_P1;HPM_P2
2022/07/08 00:01:28;;;;;;;7.70;1.92;;;;;;;;;;6271269;22;20023;-80
2022/07/08 00:03:54;;;;;;;7.03;1.80;;;;;;;;;;6298899;22;20061;-79
2022/07/08 00:06:20;;;;;;;13.55;2.35;;;;;;;;;;6297731;22;20355;-79
2022/07/08 00:08:46;;;;;;;10.77;2.17;;;;;;;;;;6297461;22;20015;-78
2022/07/08 00:11:12;;;;;;;11.88;1.50;;;;;;;;;;6269785;22;20077;-79
2022/07/08 00:13:38;;;;;;;13.00;2.08;;;;;;;;;;6297273;22;20426;-78
2022/07/08 00:16:05;;;;;;;15.05;2.15;;;;;;;;;;6297443;22;20114;-79
2022/07/08 00:18:31;;;;;;;12.10;2.75;;;;;;;;;;6295520;22;20011;-79
2022/07/08 00:20:57;;;;;;;10.73;2.20;;;;;;;;;;6296952;22;20030;-76
2022/07/08 00:23:23;;;;;;;16.17;2.13;;;;;;;;;;6297358;22;20015;-79
2022/07/08 00:25:49;;;;;;;13.95;2.05;;;;;;;;;;6299419;22;20081;-79
2022/07/08 00:28:15;;;;;;;10.43;1.95;;;;;;;;;;6268670;22;20023;-79
2022/07/08 00:30:41;;;;;;;19.67;3.08;;;;;;;;;;6296762;22;20026;-78
2022/07/08 00:33:07;;;;;;;12.93;2.33;;;;;;;;;;6297117;22;20015;-78
2022/07/08 00:35:34;;;;;;;20.35;2.50;;;;;;;;;;6295314;22;20019;-78
2022/07/08 00:38:00;;;;;;;13.15;2.15;;;;;;;;;;6297715;22;20023;-79
2022/07/08 00:40:26;;;;;;;14.10;2.40;;;;;;;;;;6297549;22;20022;-78
2022/07/08 00:42:52;;;;;;;13.55;2.10;;;;;;;;;;6299345;22;20501;-78
2022/07/08 00:45:19;;;;;;;12.07;2.08;;;;;;;;;;6268899;22;20026;-78
2022/07/08 00:47:45;;;;;;;11.77;1.85;;;;;;;;;;6295228;22;20015;-78
2022/07/08 00:50:11;;;;;;;16.55;1.58;;;;;;;;;;6296756;22;20392;-78
2022/07/08 00:52:38;;;;;;;10.55;1.70;;;;;;;;;;6296038;22;20019;-81
2022/07/08 00:55:04;;;;;;;10.80;2.00;;;;;;;;;;6297067;22;20074;-79
2022/07/08 00:57:30;;;;;;;12.32;2.20;;;;;;;;;;6270526;22;20027;-78
2022/07/08 00:59:57;;;;;;;11.27;2.10;;;;;;;;;;6267592;22;20026;-78
2022/07/08 01:02:23;;;;;;;15.55;1.88;;;;;;;;;;6269477;22;20020;-78
2022/07/08 01:04:50;;;;;;;18.92;2.63;;;;;;;;;;6268858;22;20015;-76
2022/07/08 01:07:17;;;;;;;16.02;2.30;;;;;;;;;;6296022;22;20017;-78
2022/07/08 01:09:43;;;;;;;11.60;2.35;;;;;;;;;;6295263;22;20027;-78
2022/07/08 01:12:09;;;;;;;14.75;1.98;;;;;;;;;;6298979;22;20965;-77
2022/07/08 01:14:35;;;;;;;14.88;2.15;;;;;;;;;;6267714;22;20023;-76
2022/07/08 01:17:01;;;;;;;12.77;2.20;;;;;;;;;;6268975;22;20125;-76
2022/07/08 01:19:27;;;;;;;13.45;2.70;;;;;;;;;;6296270;22;20015;-78
2022/07/08 01:21:55;;;;;;;17.33;2.30;;;;;;;;;;6297470;22;20025;-79
2022/07/08 01:24:22;;;;;;;13.25;1.92;;;;;;;;;;6297204;22;20541;-77
2022/07/08 01:26:51;;;;;;;9.88;1.80;;;;;;;;;;6297199;22;20339;-79
2022/07/08 01:29:17;;;;;;;15.15;2.13;;;;;;;;;;6295015;22;20019;-78
2022/07/08 01:31:43;;;;;;;12.55;1.98;;;;;;;;;;6269421;22;20023;-78
2022/07/08 01:34:09;;;;;;;17.48;1.98;;;;;;;;;;6270194;22;20045;-79
2022/07/08 01:36:35;;;;;;;12.43;2.13;;;;;;;;;;6297864;22;20182;-81
2022/07/08 01:39:01;;;;;;;13.50;2.13;;;;;;;;;;6297439;22;20019;-79
2022/07/08 01:41:27;;;;;;;14.40;2.42;;;;;;;;;;6297928;22;20011;-79
2022/07/08 01:43:53;;;;;;;12.40;2.03;;;;;;;;;;6244650;22;20019;-77
2022/07/08 01:46:21;;;;;;;14.38;2.58;;;;;;;;;;6297690;22;20705;-79
2022/07/08 01:48:47;;;;;;;11.32;2.28;;;;;;;;;;6295884;22;20022;-78
2022/07/08 01:51:13;;;;;;;14.50;2.20;;;;;;;;;;6268649;22;20019;-79
2022/07/08 01:53:40;;;;;;;14.27;1.80;;;;;;;;;;6269274;22;20418;-81
2022/07/08 01:56:06;;;;;;;13.18;1.80;;;;;;;;;;6270543;22;20098;-81
2022/07/08 01:58:32;;;;;;;6.70;1.63;;;;;;;;;;6298207;22;20098;-79
2022/07/08 02:00:58;;;;;;;12.10;1.75;;;;;;;;;;6275535;22;20023;-79
2022/07/08 02:03:25;;;;;;;13.02;2.10;;;;;;;;;;6306498;22;20026;-77
2022/07/08 02:05:51;;;;;;;11.38;1.90;;;;;;;;;;6309957;22;20022;-80
2022/07/08 02:08:17;;;;;;;19.75;2.67;;;;;;;;;;6301103;22;20096;-78
2022/07/08 02:13:28;;;;;;;12.23;2.35;;;;;;;;;;6297126;22;20106;-80
2022/07/08 02:15:54;;;;;;;12.50;1.88;;;;;;;;;;6244361;22;20072;-79
2022/07/08 02:18:20;;;;;;;13.63;2.20;;;;;;;;;;6243406;22;20015;-79
2022/07/08 02:20:55;;;;;;;10.93;1.92;;;;;;;;;;6243939;22;20047;-78
2022/07/08 02:23:21;;;;;;;8.73;1.85;;;;;;;;;;6295257;22;20125;-78
2022/07/08 02:25:47;;;;;;;13.48;2.00;;;;;;;;;;6299652;22;20019;-78
2022/07/08 02:28:13;;;;;;;15.70;1.85;;;;;;;;;;6271616;22;20026;-78
2022/07/08 02:30:39;;;;;;;9.07;1.80;;;;;;;;;;6220877;22;20116;-79
2022/07/08 02:33:06;;;;;;;15.80;2.13;;;;;;;;;;6298555;22;20065;-79
2022/07/08 02:35:32;;;;;;;8.07;1.67;;;;;;;;;;6298839;22;20438;-79
2022/07/08 02:37:58;;;;;;;18.60;2.10;;;;;;;;;;6298512;22;20027;-78
2022/07/08 02:40:24;;;;;;;15.60;2.20;;;;;;;;;;6296395;22;20026;-78
2022/07/08 02:42:50;;;;;;;9.48;1.80;;;;;;;;;;6296594;22;20391;-78
2022/07/08 02:45:16;;;;;;;11.65;2.20;;;;;;;;;;6268514;22;20023;-78
2022/07/08 02:47:42;;;;;;;11.05;1.92;;;;;;;;;;6296200;22;20836;-78
2022/07/08 02:50:08;;;;;;;13.00;2.08;;;;;;;;;;6295754;22;20334;-77
2022/07/08 02:52:35;;;;;;;10.50;1.98;;;;;;;;;;6267732;22;20023;-77
2022/07/08 02:55:02;;;;;;;10.13;2.40;;;;;;;;;;6295278;22;20023;-78
2022/07/08 02:57:28;;;;;;;19.33;3.08;;;;;;;;;;6267870;22;20023;-77
2022/07/08 02:59:54;;;;;;;8.10;2.28;;;;;;;;;;6267457;22;20119;-78
2022/07/08 03:02:20;;;;;;;10.65;2.05;;;;;;;;;;6296314;22;20026;-78
2022/07/08 03:04:46;;;;;;;10.43;2.10;;;;;;;;;;6266976;22;20019;-77
2022/07/08 03:07:12;;;;;;;15.75;2.47;;;;;;;;;;6294784;22;20084;-77
2022/07/08 03:09:38;;;;;;;13.52;2.40;;;;;;;;;;6294303;22;20050;-78
2022/07/08 03:12:04;;;;;;;21.88;2.80;;;;;;;;;;6295407;22;20012;-78
2022/07/08 03:14:31;;;;;;;6.43;1.90;;;;;;;;;;6268326;22;20030;-77
2022/07/08 03:16:57;;;;;;;10.75;2.00;;;;;;;;;;6295189;22;20054;-79
2022/07/08 03:19:23;;;;;;;9.25;2.08;;;;;;;;;;6295072;22;20019;-78
2022/07/08 03:21:49;;;;;;;15.25;2.25;;;;;;;;;;6267628;22;20022;-78
2022/07/08 03:24:15;;;;;;;15.45;2.03;;;;;;;;;;6296488;22;20015;-77
2022/07/08 03:26:41;;;;;;;12.32;2.42;;;;;;;;;;6270100;22;20019;-77
2022/07/08 03:29:07;;;;;;;10.27;2.33;;;;;;;;;;6297193;22;20098;-78
2022/07/08 03:31:33;;;;;;;10.93;2.58;;;;;;;;;;6297846;22;20455;-77
2022/07/08 03:33:59;;;;;;;16.05;2.47;;;;;;;;;;6298203;22;20015;-78
2022/07/08 03:36:25;;;;;;;16.20;2.20;;;;;;;;;;6296823;22;20015;-79
2022/07/08 03:38:51;;;;;;;14.50;2.53;;;;;;;;;;6295715;22;20066;-78
2022/07/08 03:41:20;;;;;;;9.10;2.10;;;;;;;;;;6296305;22;20030;-78
2022/07/08 03:43:47;;;;;;;12.93;2.42;;;;;;;;;;6297105;22;20488;-79
2022/07/08 03:46:14;;;;;;;12.73;2.70;;;;;;;;;;6269387;22;20023;-78
2022/07/08 03:48:40;;;;;;;13.13;2.17;;;;;;;;;;6297524;22;20022;-78
2022/07/08 03:51:06;;;;;;;11.82;2.40;;;;;;;;;;6268219;22;20362;-79
2022/07/08 03:53:32;;;;;;;6.57;1.75;;;;;;;;;;6295687;22;20019;-78
2022/07/08 03:55:58;;;;;;;11.63;2.95;;;;;;;;;;6296197;22;20019;-77
2022/07/08 03:58:24;;;;;;;12.88;2.15;;;;;;;;;;6296395;22;20023;-78
2022/07/08 04:00:50;;;;;;;14.55;2.72;;;;;;;;;;6242231;22;20019;-78
2022/07/08 04:03:17;;;;;;;12.45;2.13;;;;;;;;;;6296747;22;20026;-79
2022/07/08 04:05:43;;;;;;;17.10;2.78;;;;;;;;;;6297959;22;20024;-78
2022/07/08 04:08:09;;;;;;;8.00;2.08;;;;;;;;;;6295641;22;20042;-78
2022/07/08 04:10:35;;;;;;;13.45;2.30;;;;;;;;;;6269504;22;20398;-79
2022/07/08 04:13:01;;;;;;;18.17;3.17;;;;;;;;;;6296011;22;20011;-78
2022/07/08 04:15:27;;;;;;;15.40;2.75;;;;;;;;;;6296330;22;20192;-78
2022/07/08 04:17:53;;;;;;;8.65;2.30;;;;;;;;;;6297207;22;20011;-80
2022/07/08 04:20:20;;;;;;;8.80;1.98;;;;;;;;;;6295267;22;21050;-79
2022/07/08 04:22:46;;;;;;;17.17;2.80;;;;;;;;;;6295682;22;20057;-78
2022/07/08 04:25:12;;;;;;;10.05;2.45;;;;;;;;;;6296351;22;20016;-79
2022/07/08 04:27:38;;;;;;;9.98;1.80;;;;;;;;;;6296967;22;20051;-78
2022/07/08 04:30:04;;;;;;;10.98;2.42;;;;;;;;;;6296249;22;20062;-78
2022/07/08 04:32:30;;;;;;;12.65;2.40;;;;;;;;;;6296402;22;20019;-78
2022/07/08 04:34:59;;;;;;;15.75;2.63;;;;;;;;;;6297077;22;20019;-78
2022/07/08 04:37:28;;;;;;;11.02;2.25;;;;;;;;;;6295992;22;20019;-77
2022/07/08 04:39:54;;;;;;;13.05;2.30;;;;;;;;;;6295503;22;20049;-77
2022/07/08 04:42:20;;;;;;;11.10;2.75;;;;;;;;;;6296026;22;20012;-78
2022/07/08 04:44:46;;;;;;;12.57;2.58;;;;;;;;;;6296606;22;20628;-80
2022/07/08 04:47:12;;;;;;;13.40;2.85;;;;;;;;;;6297007;22;20015;-79
2022/07/08 04:49:38;;;;;;;15.23;2.47;;;;;;;;;;6301136;22;20106;-79
2022/07/08 04:52:08;;;;;;;18.73;3.25;;;;;;;;;;6301537;22;20026;-77
2022/07/08 04:54:37;;;;;;;13.82;2.85;;;;;;;;;;6272726;22;20514;-77
2022/07/08 04:57:03;;;;;;;11.95;2.53;;;;;;;;;;6268501;22;20459;-78
2022/07/08 04:59:30;;;;;;;12.73;2.28;;;;;;;;;;6297742;22;20026;-79
2022/07/08 05:01:56;;;;;;;13.95;2.78;;;;;;;;;;6298840;22;20069;-80
2022/07/08 05:04:22;;;;;;;12.88;3.40;;;;;;;;;;6299090;22;20083;-81
2022/07/08 05:06:48;;;;;;;12.82;3.05;;;;;;;;;;6295795;22;20022;-81
2022/07/08 05:09:14;;;;;;;12.40;2.47;;;;;;;;;;6271666;22;20405;-78
2022/07/08 05:11:40;;;;;;;11.40;2.55;;;;;;;;;;6299349;22;20451;-81
2022/07/08 05:14:06;;;;;;;18.42;2.67;;;;;;;;;;6300805;22;20050;-80
2022/07/08 05:16:32;;;;;;;17.52;3.30;;;;;;;;;;6272283;22;20022;-79
2022/07/08 05:18:58;;;;;;;17.23;2.55;;;;;;;;;;6300802;22;20301;-79
2022/07/08 05:21:24;;;;;;;18.55;3.10;;;;;;;;;;6304053;22;20316;-80
2022/07/08 05:23:50;;;;;;;15.57;2.72;;;;;;;;;;6306945;22;20081;-78
2022/07/08 05:26:16;;;;;;;13.63;3.53;;;;;;;;;;6303410;22;20019;-79
2022/07/08 05:28:43;;;;;;;15.00;3.25;;;;;;;;;;6305127;22;20026;-80
2022/07/08 05:31:12;;;;;;;21.05;3.42;;;;;;;;;;6274748;22;20329;-79
2022/07/08 05:33:38;;;;;;;11.23;2.55;;;;;;;;;;6275117;22;20031;-79
2022/07/08 05:36:06;;;;;;;17.02;3.03;;;;;;;;;;6275309;22;20383;-79
2022/07/08 05:38:32;;;;;;;11.07;2.42;;;;;;;;;;6300111;22;20114;-79
2022/07/08 05:40:59;;;;;;;15.25;2.67;;;;;;;;;;6300639;22;20372;-80
2022/07/08 05:43:25;;;;;;;16.55;2.20;;;;;;;;;;6298468;22;20106;-81
2022/07/08 05:45:51;;;;;;;13.38;3.03;;;;;;;;;;6276001;22;20023;-80
2022/07/08 05:48:18;;;;;;;20.00;3.35;;;;;;;;;;6299525;22;20015;-82
2022/07/08 05:50:44;;;;;;;17.85;3.38;;;;;;;;;;6301557;22;20023;-82
2022/07/08 05:53:10;;;;;;;14.82;2.85;;;;;;;;;;6302885;22;20011;-80
2022/07/08 05:55:36;;;;;;;14.00;2.67;;;;;;;;;;6300851;22;20080;-82
2022/07/08 05:58:02;;;;;;;10.27;2.42;;;;;;;;;;6299443;22;20023;-79
2022/07/08 06:00:28;;;;;;;15.10;2.42;;;;;;;;;;6299558;22;20339;-78
2022/07/08 06:02:54;;;;;;;12.98;2.60;;;;;;;;;;6300934;22;20034;-77
2022/07/08 06:05:21;;;;;;;12.23;3.13;;;;;;;;;;6298677;22;20022;-81
2022/07/08 06:07:47;;;;;;;15.30;2.42;;;;;;;;;;6302321;22;20019;-79
2022/07/08 06:10:13;;;;;;;17.88;2.58;;;;;;;;;;6303355;22;20042;-80
2022/07/08 06:12:39;;;;;;;15.60;2.80;;;;;;;;;;6301950;22;20016;-78
2022/07/08 06:15:05;;;;;;;12.23;2.00;;;;;;;;;;6301684;22;20055;-78
2022/07/08 06:17:32;;;;;;;13.02;2.50;;;;;;;;;;6300954;22;20072;-79
2022/07/08 06:19:58;;;;;;;15.68;2.95;;;;;;;;;;6271638;22;20030;-77
2022/07/08 06:22:24;;;;;;;22.60;4.00;;;;;;;;;;6298713;22;20095;-78
2022/07/08 06:25:11;;;;;;;35.15;2.90;;;;;;;;;;6297893;22;20473;-80
2022/07/08 06:27:36;;;;;;;17.58;2.55;;;;;;;;;;6297952;22;20098;-80
2022/07/08 06:30:03;;;;;;;13.20;2.35;;;;;;;;;;6299359;22;20379;-80
2022/07/08 06:32:29;;;;;;;16.13;2.78;;;;;;;;;;6297498;22;20019;-79
2022/07/08 06:34:55;;;;;;;24.10;2.58;;;;;;;;;;6301401;22;20019;-79
2022/07/08 06:37:21;;;;;;;13.73;2.22;;;;;;;;;;6273472;22;20057;-79
2022/07/08 06:39:47;;;;;;;15.48;3.00;;;;;;;;;;6271735;22;20034;-78
2022/07/08 06:42:14;;;;;;;14.25;2.75;;;;;;;;;;6301254;22;20016;-80
2022/07/08 06:44:40;;;;;;;14.52;3.03;;;;;;;;;;6302106;22;20363;-81
2022/07/08 06:47:06;;;;;;;13.77;3.10;;;;;;;;;;6301026;22;20447;-79
2022/07/08 06:49:32;;;;;;;9.43;2.55;;;;;;;;;;6273433;22;20019;-80
2022/07/08 06:51:58;;;;;;;15.85;2.58;;;;;;;;;;6299105;22;20019;-79
2022/07/08 06:54:36;;;;;;;12.55;3.00;;;;;;;;;;6294454;22;20023;-80
2022/07/08 06:57:03;;;;;;;12.82;2.90;;;;;;;;;;6298088;22;20015;-79
2022/07/08 06:59:30;;;;;;;11.52;2.78;;;;;;;;;;6303253;22;20030;-79
2022/07/08 07:01:56;;;;;;;11.38;2.65;;;;;;;;;;6275097;22;20018;-79
2022/07/08 07:04:22;;;;;;;16.02;2.63;;;;;;;;;;6302423;22;20076;-80
2022/07/08 07:06:48;;;;;;;9.15;2.00;;;;;;;;;;6275030;22;20015;-79
2022/07/08 07:09:14;;;;;;;21.38;2.45;;;;;;;;;;6275051;22;20463;-79
2022/07/08 07:11:41;;;;;;;9.68;2.08;;;;;;;;;;6302834;22;20048;-81
2022/07/08 07:14:07;;;;;;;9.48;2.10;;;;;;;;;;6274281;22;20051;-81
2022/07/08 07:16:34;;;;;;;12.13;2.83;;;;;;;;;;6303315;22;20022;-81
2022/07/08 07:19:00;;;;;;;11.70;2.38;;;;;;;;;;6302518;22;20027;-78
2022/07/08 07:21:26;;;;;;;11.68;2.30;;;;;;;;;;6276593;22;20019;-79
2022/07/08 07:23:52;;;;;;;15.02;2.88;;;;;;;;;;6302702;22;20026;-81
2022/07/08 07:26:18;;;;;;;10.23;1.83;;;;;;;;;;6302858;22;20060;-80
2022/07/08 07:28:44;;;;;;;13.73;2.13;;;;;;;;;;6302424;22;20471;-80
2022/07/08 07:31:10;;;;;;;21.25;3.45;;;;;;;;;;6300917;22;20069;-79
2022/07/08 07:33:36;;;;;;;12.27;2.00;;;;;;;;;;6303027;22;20885;-80
2022/07/08 07:36:02;;;;;;;22.88;2.85;;;;;;;;;;6307998;22;20022;-80
2022/07/08 07:38:29;;;;;;;11.27;2.72;;;;;;;;;;6312206;22;20403;-80
2022/07/08 07:40:55;;;;;;;14.90;2.78;;;;;;;;;;6313202;22;20296;-79
2022/07/08 07:43:21;;;;;;;10.63;2.08;;;;;;;;;;6305550;22;20019;-77
2022/07/08 07:45:47;;;;;;;12.88;2.38;;;;;;;;;;6302050;22;20015;-78
2022/07/08 07:48:14;;;;;;;12.32;2.58;;;;;;;;;;6303646;22;20019;-79
2022/07/08 07:50:40;;;;;;;11.15;2.42;;;;;;;;;;6302750;22;20019;-80
2022/07/08 07:53:06;;;;;;;14.43;2.60;;;;;;;;;;6303371;22;20019;-81
2022/07/08 07:55:32;;;;;;;9.27;2.10;;;;;;;;;;6303867;22;20058;-81
2022/07/08 07:58:00;;;;;;;11.05;2.30;;;;;;;;;;6303259;22;20072;-80
2022/07/08 08:00:26;;;;;;;13.45;2.33;;;;;;;;;;6300114;22;20019;-79
2022/07/08 08:02:52;;;;;;;8.80;2.13;;;;;;;;;;6270632;22;20023;-79
2022/07/08 08:05:18;;;;;;;11.80;1.83;;;;;;;;;;6299066;22;20073;-80
2022/07/08 08:07:44;;;;;;;12.25;2.22;;;;;;;;;;6298898;22;20023;-79
2022/07/08 08:10:11;;;;;;;9.07;2.15;;;;;;;;;;6299011;22;20049;-79
2022/07/08 08:12:38;;;;;;;9.13;1.77;;;;;;;;;;6301770;22;20037;-79
2022/07/08 08:15:04;;;;;;;16.02;2.72;;;;;;;;;;6301773;22;20612;-79
2022/07/08 08:17:43;;;;;;;8.77;2.50;;;;;;;;;;6303027;22;20016;-81
2022/07/08 08:20:10;;;;;;;10.48;2.22;;;;;;;;;;6302703;22;20090;-82
2022/07/08 08:22:36;;;;;;;11.23;2.33;;;;;;;;;;6303234;22;20054;-78
2022/07/08 08:25:03;;;;;;;8.45;2.28;;;;;;;;;;6302028;22;20042;-78
2022/07/08 08:27:29;;;;;;;16.60;2.65;;;;;;;;;;6302358;22;20022;-79
2022/07/08 08:29:55;;;;;;;7.10;2.20;;;;;;;;;;6227035;22;20019;-79
2022/07/08 08:32:21;;;;;;;12.63;2.75;;;;;;;;;;6303272;22;20015;-81
2022/07/08 08:34:48;;;;;;;14.50;2.10;;;;;;;;;;6305010;22;20023;-79
2022/07/08 08:37:14;;;;;;;18.33;2.75;;;;;;;;;;6274454;22;20019;-79
2022/07/08 08:39:40;;;;;;;6.38;2.00;;;;;;;;;;6275955;22;20748;-80
2022/07/08 08:42:07;;;;;;;17.92;2.65;;;;;;;;;;6303004;22;20535;-80
2022/07/08 08:44:33;;;;;;;17.25;2.17;;;;;;;;;;6304911;22;20015;-80
2022/07/08 08:47:03;;;;;;;14.18;2.40;;;;;;;;;;6303091;22;20022;-78
2022/07/08 08:49:33;;;;;;;18.58;2.72;;;;;;;;;;6301957;22;20669;-79
2022/07/08 08:52:02;;;;;;;16.88;2.58;;;;;;;;;;6301839;22;20022;-79
2022/07/08 08:54:29;;;;;;;11.45;2.50;;;;;;;;;;6301817;22;20015;-81
2022/07/08 08:56:56;;;;;;;16.95;4.90;;;;;;;;;;6302489;22;20570;-81
2022/07/08 08:59:23;;;;;;;15.88;3.00;;;;;;;;;;6302534;22;20019;-82
2022/07/08 09:01:49;;;;;;;19.52;2.88;;;;;;;;;;6303012;22;20087;-80
2022/07/08 09:04:16;;;;;;;11.63;3.03;;;;;;;;;;6303071;22;20053;-80
2022/07/08 09:06:42;;;;;;;9.18;2.33;;;;;;;;;;6302370;22;20363;-81
2022/07/08 09:09:09;;;;;;;14.82;2.53;;;;;;;;;;6303649;22;20033;-82
2022/07/08 09:11:35;;;;;;;17.85;3.10;;;;;;;;;;6303757;22;20100;-80
2022/07/08 09:14:17;;;;;;;15.15;3.88;;;;;;;;;;6304084;22;20138;-80
2022/07/08 09:17:02;;;;;;;13.75;2.75;;;;;;;;;;6277571;22;20419;-79
2022/07/08 09:19:28;;;;;;;19.00;2.38;;;;;;;;;;6277977;22;20350;-78
2022/07/08 09:21:54;;;;;;;10.65;2.47;;;;;;;;;;6305324;22;20471;-78
2022/07/08 09:24:21;;;;;;;10.25;2.53;;;;;;;;;;6277549;22;20015;-79
2022/07/08 09:26:47;;;;;;;14.23;2.72;;;;;;;;;;6306946;22;20086;-82
2022/07/08 09:29:13;;;;;;;11.82;2.55;;;;;;;;;;6305236;22;20057;-85
2022/07/08 09:31:39;;;;;;;11.23;2.40;;;;;;;;;;6228427;22;20019;-79
2022/07/08 09:34:16;;;;;;;9.32;2.90;;;;;;;;;;6253092;22;20507;-79
2022/07/08 09:36:46;;;;;;;15.68;2.67;;;;;;;;;;6308117;22;20023;-80
2022/07/08 09:39:25;;;;;;;17.55;2.38;;;;;;;;;;6277744;22;20343;-81
2022/07/08 09:41:51;;;;;;;15.82;2.92;;;;;;;;;;6305740;22;20754;-80
2022/07/08 09:44:19;;;;;;;11.10;2.75;;;;;;;;;;6306085;22;20067;-78
2022/07/08 09:46:47;;;;;;;10.05;2.13;;;;;;;;;;6305506;22;20011;-80
2022/07/08 09:49:34;;;;;;;14.48;2.30;;;;;;;;;;6305780;22;20846;-80
2022/07/08 09:52:00;;;;;;;8.80;2.10;;;;;;;;;;6278445;22;20517;-79
2022/07/08 09:54:27;;;;;;;9.02;1.95;;;;;;;;;;6305705;22;20444;-81
2022/07/08 09:57:03;;;;;;;13.88;2.90;;;;;;;;;;6303040;22;20011;-80
2022/07/08 09:59:30;;;;;;;10.20;2.30;;;;;;;;;;6304811;22;20393;-80
2022/07/08 10:01:57;;;;;;;13.02;2.53;;;;;;;;;;6277848;22;20037;-81
2022/07/08 10:04:24;;;;;;;9.32;2.45;;;;;;;;;;6302688;22;20445;-79
2022/07/08 10:06:51;;;;;;;7.88;2.20;;;;;;;;;;6303429;22;20069;-81
2022/07/08 10:09:17;;;;;;;18.02;2.75;;;;;;;;;;6301910;22;20030;-80
2022/07/08 10:11:44;;;;;;;8.05;2.10;;;;;;;;;;6301498;22;20100;-81
2022/07/08 10:14:10;;;;;;;13.07;2.15;;;;;;;;;;6276439;22;20443;-80
2022/07/08 10:16:38;;;;;;;9.73;2.03;;;;;;;;;;6301821;22;20015;-79
2022/07/08 10:19:06;;;;;;;8.02;1.98;;;;;;;;;;6271424;22;20412;-79
2022/07/08 10:21:33;;;;;;;10.70;1.70;;;;;;;;;;6297392;22;20053;-81
2022/07/08 10:23:59;;;;;;;15.25;2.40;;;;;;;;;;6269904;22;20015;-80
2022/07/08 10:26:28;;;;;;;12.77;2.35;;;;;;;;;;6297686;22;20030;-79
2022/07/08 10:29:01;;;;;;;10.52;2.40;;;;;;;;;;6271004;22;20049;-80
2022/07/08 10:31:29;;;;;;;10.63;1.75;;;;;;;;;;6301236;22;20026;-82
2022/07/08 10:34:01;;;;;;;7.22;1.90;;;;;;;;;;6300443;22;20015;-81
2022/07/08 10:36:28;;;;;;;11.32;2.17;;;;;;;;;;6300699;22;20023;-81
2022/07/08 10:39:04;;;;;;;9.70;1.90;;;;;;;;;;6301020;22;20064;-80
2022/07/08 10:41:30;;;;;;;9.23;1.85;;;;;;;;;;6271539;22;20023;-80
2022/07/08 10:44:02;;;;;;;6.78;1.88;;;;;;;;;;6299262;22;20673;-81
2022/07/08 10:46:29;;;;;;;14.50;2.55;;;;;;;;;;6298860;22;20023;-81
2022/07/08 10:48:56;;;;;;;10.82;2.65;;;;;;;;;;6299968;22;20527;-81
2022/07/08 10:51:25;;;;;;;5.88;2.08;;;;;;;;;;6250000;22;20019;-80
2022/07/08 10:53:51;;;;;;;9.55;2.10;;;;;;;;;;6275303;22;20038;-80
2022/07/08 10:56:48;;;;;;;10.55;2.33;;;21.60;99.90;;;;;;6300699;22;20012;-81
2022/07/08 10:59:29;;;;;;;12.88;2.55;;;;;;;;;;6300400;22;20449;-81
2022/07/08 11:02:11;;;;;;;15.75;2.83;;;;;;;;;;6273303;22;20096;-80
2022/07/08 11:04:37;;;;;;;13.02;2.88;;;;;;;;;;6300169;22;20015;-83
2022/07/08 11:07:15;;;;;;;12.93;2.53;;;;;;;;;;6300449;22;20019;-81
2022/07/08 11:09:44;;;;;;;13.70;1.95;;;;;;;;;;6300118;22;20090;-82
2022/07/08 11:12:14;;;;;;;9.43;2.30;;;;;;;;;;6303454;22;20464;-84
2022/07/08 11:14:50;;;;;;;6.63;2.55;;;;;;;;;;6272330;22;20625;-82
2022/07/08 11:17:16;;;;;;;13.40;2.50;;;;;;;;;;6299794;22;20588;-82
2022/07/08 11:19:43;;;;;;;11.75;2.42;;;;;;;;;;6300547;22;20363;-80
2022/07/08 11:22:10;;;;;;;14.50;2.78;;;;;;;;;;6245222;22;20023;-82
2022/07/08 11:24:39;;;;;;;6.70;2.08;;;;;;;;;;6300002;22;20038;-80
2022/07/08 11:27:05;;;;;;;9.68;2.22;;;;;;;;;;6273520;22;20055;-81
2022/07/08 11:29:31;;;;;;;8.45;2.35;;;;;;;;;;6299781;22;20020;-81
2022/07/08 11:31:58;;;;;;;11.88;2.45;;;;;;;;;;6299339;22;20022;-80
2022/07/08 11:34:27;;;;;;;12.20;2.60;;;;;;;;;;6270626;22;20651;-79
2022/07/08 11:37:01;;;;;;;5.10;1.92;;;;;;;;;;6298974;22;20112;-81
2022/07/08 11:39:27;;;;;;;8.90;2.13;;;;;;;;;;6299009;22;20019;-80
2022/07/08 11:41:54;;;;;;;9.35;2.33;;;;;;;;;;6299661;22;20073;-80
2022/07/08 11:44:20;;;;;;;9.20;2.15;;;;;;;;;;6272395;22;20049;-81
2022/07/08 11:46:48;;;;;;;9.75;2.30;;;;;;;;;;6274781;22;20471;-79
2022/07/08 11:49:14;;;;;;;11.45;2.60;;;;;;;;;;6278903;22;20026;-81
2022/07/08 11:51:46;;;;;;;10.65;2.17;;;;;;;;;;6305115;22;20019;-80
2022/07/08 11:54:13;;;;;;;12.18;2.55;;;;;;;;;;6304686;22;20015;-80
2022/07/08 11:56:40;;;;;;;11.82;2.30;;;;;;;;;;6304794;22;20390;-80
2022/07/08 11:59:06;;;;;;;6.25;2.28;;;;;;;;;;6305164;22;20296;-78
2022/07/08 12:01:33;;;;;;;7.97;2.60;;;;;;;;;;6303749;22;20019;-80
2022/07/08 12:03:59;;;;;;;7.82;2.10;;;;;;;;;;6278322;22;20023;-78
2022/07/08 12:06:26;;;;;;;10.23;2.25;;;;;;;;;;6278434;22;20078;-82
2022/07/08 12:08:58;;;;;;;8.52;2.20;;;;;;;;;;6279533;22;20019;-81
2022/07/08 12:11:25;;;;;;;9.82;2.20;;;;;;;;;;6305526;22;20029;-83
2022/07/08 12:13:52;;;;;;;10.68;2.30;;;;;;;;;;6307926;22;20015;-81
2022/07/08 12:16:32;;;;;;;11.55;2.17;;;;;;;;;;6307793;22;20073;-82
2022/07/08 12:18:59;;;;;;;10.35;2.63;;;;;;;;;;6277034;22;20042;-81
2022/07/08 12:21:25;;;;;;;9.95;2.50;;;;;;;;;;6278622;22;20016;-82
2022/07/08 12:24:01;;;;;;;13.82;3.10;;;;;;;;;;6308747;22;20059;-82
2022/07/08 12:26:28;;;;;;;9.95;2.75;;;;;;;;;;6255056;22;20019;-82
2022/07/08 12:28:56;;;;;;;13.43;2.35;;;;;;;;;;6310808;22;20016;-82
2022/07/08 12:31:51;;;;;;;11.25;2.80;;;;;;;;;;6307904;22;20022;-80
2022/07/08 12:34:18;;;;;;;11.38;3.25;;;;;;;;;;6274701;22;20053;-81
2022/07/08 12:36:45;;;;;;;6.28;2.78;;;;;;;;;;6309905;22;20086;-82
2022/07/08 12:39:31;;;;;;;13.55;2.83;;;;;;;;;;6307561;22;20029;-81
2022/07/08 12:42:00;;;;;;;12.07;2.92;;;;;;;;;;6276839;22;20019;-82
2022/07/08 12:44:33;;;;;;;9.95;2.60;;;;;;;;;;6275539;22;20019;-83
2022/07/08 12:47:00;;;;;;;10.20;2.50;;;;;;;;;;6201297;22;20020;-82
2022/07/08 12:49:42;;;;;;;7.22;2.22;;;;;;;;;;6249732;22;20026;-83
2022/07/08 12:52:17;;;;;;;8.75;2.45;;;;;;;;;;6277257;22;20016;-82
2022/07/08 12:54:43;;;;;;;17.10;4.00;;;;;;;;;;6276946;22;20019;-84
2022/07/08 12:57:10;;;;;;;8.50;2.63;;;;;;;;;;6276817;22;20567;-81
2022/07/08 12:59:36;;;;;;;10.00;2.25;;;;;;;;;;6249705;22;20031;-83
2022/07/08 13:02:02;;;;;;;12.63;2.30;;;;;;;;;;6277504;22;20016;-82
2022/07/08 13:04:29;;;;;;;11.68;2.30;;;;;;;;;;6283315;22;20095;-80
2022/07/08 13:06:58;;;;;;;7.00;2.53;;;;;;;;;;6284502;22;20019;-81
2022/07/08 13:09:24;;;;;;;5.93;1.80;;;;;;;;;;6284090;22;20016;-81
2022/07/08 13:11:53;;;;;;;8.05;2.38;;;;;;;;;;6286370;22;20029;-80
2022/07/08 13:14:20;;;;;;;9.25;2.53;;;;;;;;;;6233411;22;20020;-80
2022/07/08 13:16:46;;;;;;;9.43;2.47;;;;;;;;;;6284425;22;20016;-82
2022/07/08 13:19:12;;;;;;;7.55;2.45;;;;;;;;;;6287407;22;20586;-81
2022/07/08 13:21:38;;;;;;;12.63;2.95;;;;;;;;;;6289156;22;20015;-81
2022/07/08 13:24:05;;;;;;;13.05;2.80;;;;;;;;;;6260304;22;20039;-81
2022/07/08 13:26:33;;;;;;;9.18;2.15;;;;;;;;;;6263959;22;20030;-81
2022/07/08 13:28:59;;;;;;;9.10;2.60;;;;;;;;;;6288725;22;20051;-81
2022/07/08 13:31:25;;;;;;;8.50;2.38;;;;;;;;;;6292039;22;20039;-81
2022/07/08 13:33:53;;;;;;;7.68;2.47;;;;;;;;;;6287211;22;20011;-80
2022/07/08 13:36:21;;;;;;;8.57;2.50;;;;;;;;;;6250000;22;20026;-81
2022/07/08 13:39:06;;;;;;;6.97;2.05;;;;;;;;;;6278129;22;20440;-82
2022/07/08 13:41:32;;;;;;;9.07;2.05;;;;;;;;;;6275533;22;20038;-81
2022/07/08 13:44:00;;;;;;;12.50;2.63;;;;;;;;;;6274398;22;20020;-82
2022/07/08 13:46:30;;;;;;;13.57;2.17;;;;;;;;;;6276309;22;20043;-83
2022/07/08 13:48:57;;;;;;;9.85;2.50;;;;;;;;;;6223633;22;20135;-81
2022/07/08 13:51:28;;;;;;;15.10;3.50;;;;;;;;;;6275153;22;20077;-80
2022/07/08 13:53:54;;;;;;;14.43;2.58;;;;;;;;;;6274638;22;20463;-80
2022/07/08 13:56:21;;;;;;;12.27;2.88;;;;;;;;;;6248436;22;20501;-81
2022/07/08 13:58:53;;;;;;;8.77;2.45;;;;;;;;;;6278110;22;20031;-80
2022/07/08 14:01:19;;;;;;;13.57;2.88;;;;;;;;;;6274678;22;20032;-82
2022/07/08 14:03:45;;;;;;;11.27;2.95;;;;;;;;;;6246294;22;20403;-79
2022/07/08 14:06:12;;;;;;;9.40;2.95;;;;;;;;;;6272284;22;20502;-81
2022/07/08 14:08:38;;;;;;;11.43;2.30;;;;;;;;;;6270687;22;20020;-82
2022/07/08 14:11:04;;;;;;;9.70;2.50;;;;;;;;;;6244446;22;20095;-81
2022/07/08 14:13:30;;;;;;;11.00;2.53;;;;;;;;;;6273141;22;20019;-80
2022/07/08 14:15:57;;;;;;;9.85;2.67;;;;;;;;;;6273891;22;20026;-82
2022/07/08 14:18:23;;;;;;;13.25;3.10;;;;;;;;;;6276223;22;20027;-82
2022/07/08 14:20:49;;;;;;;11.52;2.92;;;;;;;;;;6274855;22;20051;-81
2022/07/08 14:23:16;;;;;;;12.68;2.83;;;;;;;;;;6273847;22;20024;-80
2022/07/08 14:25:42;;;;;;;8.35;2.63;;;;;;;;;;6274440;22;20030;-81
2022/07/08 14:28:08;;;;;;;12.55;2.80;;;;;;;;;;6274053;22;20046;-81
2022/07/08 14:30:35;;;;;;;11.48;2.88;;;;;;;;;;6272430;22;20340;-81
2022/07/08 14:33:01;;;;;;;12.30;3.22;;;;;;;;;;6270139;22;20028;-81
2022/07/08 14:35:27;;;;;;;18.67;2.85;;;;;;;;;;6271878;22;20351;-81
2022/07/08 14:37:57;;;;;;;10.00;2.55;;;;;;;;;;6276828;22;20355;-81